Terminal Aerodrome Forecast
Issued by NWS

Home | Current Version | Previous Version | Graphics & Text | Print | Product List | Glossary On
Versions: 1 2 3 4 5 6 7 8 9 10 11 12
539
FTUS43 KICT 051120
TAFSLN
TAF
KSLN 051120Z 0512/0612 VRB03KT P6SM BKN150
     FM051800 17006KT P6SM OVC120
     FM052100 22006KT P6SM BKN150
     FM060000 27007KT P6SM BKN150=

USA.gov is the U.S. government's official web portal to all federal, state and local government web resources and services.